Time;durP1;ratioP1;P1;durP2;ratioP2;P2;SDS_P1;SDS_P2;PMS_P1;PMS_P2;Temp;Humidity;BMP_temperature;BMP_pressure;BME280_temperature;BME280_humidity;BME280_pressure;Samples;Min_cycle;Max_cycle;Signal;HPM_P1;HPM_P2
2023/08/09 00:03:55;;;;;;;7.75;5.22;;;;;;;26.37;59.06;100132.81;10375031;28;96750;-80
2023/08/09 00:08:58;;;;;;;9.35;5.43;;;;;;;26.18;59.66;100135.72;10374676;28;97548;-80
2023/08/09 00:14:02;;;;;;;7.53;5.73;;;;;;;26.08;59.77;100130.44;10374177;28;97501;-80
2023/08/09 00:19:09;;;;;;;8.52;5.22;;;;;;;26.34;59.04;100116.88;10374598;28;97194;-80
2023/08/09 00:24:16;;;;;;;6.88;5.57;;;;;;;26.15;59.61;100127.94;10373987;28;96688;-80
2023/08/09 00:29:20;;;;;;;8.02;6.07;;;;;;;26.33;58.93;100115.22;10374782;28;96716;-80
2023/08/09 00:34:24;;;;;;;8.03;5.80;;;;;;;26.18;59.33;100117.66;10373547;28;97686;-80
2023/08/09 00:39:28;;;;;;;7.63;5.32;;;;;;;26.01;59.69;100123.16;10373154;28;96707;-80
2023/08/09 00:44:32;;;;;;;7.90;5.38;;;;;;;25.95;59.92;100130.06;10372480;28;96692;-80
2023/08/09 00:49:37;;;;;;;9.10;5.93;;;;;;;26.02;60.00;100125.72;10382718;28;96616;-80
2023/08/09 00:54:41;;;;;;;8.48;5.45;;;;;;;26.10;59.78;100123.03;10372937;28;96791;-80
2023/08/09 00:59:44;;;;;;;7.50;6.03;;;;;;;26.08;60.00;100129.59;10372841;28;96893;-80
2023/08/09 01:04:50;;;;;;;8.18;5.50;;;;;;;26.01;60.00;100133.94;10372940;28;97263;-80
2023/08/09 01:10:02;;;;;;;7.90;5.43;;;;;;;25.78;60.78;100129.13;10373660;28;97629;-80
2023/08/09 01:15:08;;;;;;;9.50;6.13;;;;;;;25.74;60.90;100129.63;10372206;28;96568;-80
2023/08/09 01:20:16;;;;;;;7.93;5.35;;;;;;;25.73;61.01;100134.16;10381584;28;96703;-80
2023/08/09 01:25:21;;;;;;;7.47;5.38;;;;;;;25.86;60.74;100131.03;10393027;28;96756;-80
2023/08/09 01:30:25;;;;;;;7.85;5.43;;;;;;;25.78;60.90;100139.91;10372259;28;97342;-79
2023/08/09 01:35:32;;;;;;;7.60;5.63;;;;;;;25.48;61.88;100144.91;10370880;28;97844;-80
2023/08/09 01:40:42;;;;;;;8.55;5.97;;;;;;;25.56;61.58;100137.72;10372128;28;96633;-79
2023/08/09 01:45:45;;;;;;;7.60;5.05;;;;;;;25.49;61.78;100143.91;10371242;28;97105;-80
2023/08/09 01:50:51;;;;;;;7.60;5.90;;;;;;;25.41;61.79;100136.63;10383933;28;97596;-80
2023/08/09 01:56:14;;;;;;;8.67;6.20;;;;;;;25.31;62.31;100141.22;10406139;28;96874;-80
2023/08/09 02:01:18;;;;;;;8.88;6.28;;;;;;;25.24;62.23;100142.88;10375560;28;96713;-80
2023/08/09 02:06:22;;;;;;;8.73;5.72;;;;;;;25.24;62.31;100150.94;10370758;28;96799;-80
2023/08/09 02:11:44;;;;;;;7.38;5.53;;;;;;;25.04;62.95;100151.28;10370014;28;96701;-80
2023/08/09 02:16:47;;;;;;;7.95;5.70;;;;;;;25.16;62.71;100160.81;10370848;28;97193;-80
2023/08/09 02:21:51;;;;;;;8.50;5.07;;;;;;;25.17;62.68;100155.28;10393079;28;97218;-80
2023/08/09 02:26:59;;;;;;;9.05;6.13;;;;;;;25.14;62.80;100160.13;10411114;28;96910;-79
2023/08/09 02:32:03;;;;;;;8.57;6.32;;;;;;;25.13;63.01;100159.28;10410949;28;96784;-80
2023/08/09 02:37:07;;;;;;;8.70;5.77;;;;;;;25.15;63.16;100170.75;10411858;28;96931;-79
2023/08/09 02:42:12;;;;;;;8.82;5.75;;;;;;;25.14;63.10;100176.31;10411298;28;96718;-79
2023/08/09 02:47:16;;;;;;;8.68;5.68;;;;;;;25.07;63.21;100176.06;10410916;28;96739;-80
2023/08/09 02:52:36;;;;;;;7.93;5.97;;;;;;;25.07;63.38;100175.22;10393366;28;96669;-80
2023/08/09 02:57:43;;;;;;;9.40;6.28;;;;;;;25.04;63.55;100178.19;10410999;28;96732;-80
2023/08/09 03:03:08;;;;;;;7.32;5.95;;;;;;;24.96;63.55;100181.66;10411185;28;96657;-80
2023/08/09 03:08:15;;;;;;;8.23;5.88;;;;;;;24.79;64.27;100182.50;10389733;28;97740;-80
2023/08/09 03:13:20;;;;;;;7.45;5.38;;;;;;;25.05;63.78;100188.84;10376178;28;96626;-80
2023/08/09 03:18:28;;;;;;;8.18;5.50;;;;;;;25.15;63.28;100194.13;10375090;28;96714;-80
2023/08/09 03:23:31;;;;;;;8.73;6.03;;;;;;;24.99;64.05;100193.94;10392446;28;96960;-80
2023/08/09 03:28:37;;;;;;;10.73;5.75;;;;;;;24.83;64.54;100203.56;10417283;28;96597;-79
2023/08/09 03:33:40;;;;;;;9.93;6.10;;;;;;;24.72;64.97;100203.75;10417196;28;96889;-80
2023/08/09 03:38:44;;;;;;;8.10;5.60;;;;;;;24.79;64.31;100196.78;10416982;28;96678;-80
2023/08/09 03:43:48;;;;;;;9.57;6.43;;;;;;;24.83;64.54;100208.94;10375555;28;96618;-80
2023/08/09 03:48:52;;;;;;;7.40;5.88;;;;;;;24.62;64.90;100211.06;10376463;28;96941;-80
2023/08/09 03:53:56;;;;;;;;;;;;;;;24.70;65.44;100211.16;10417970;28;96823;-80
2023/08/09 03:59:03;;;;;;;7.45;5.45;;;;;;;24.47;65.32;100227.84;10389735;28;96745;-80
2023/08/09 04:04:07;;;;;;;8.02;5.90;;;;;;;24.50;65.26;100228.41;10374844;28;96711;-80
2023/08/09 04:09:12;;;;;;;11.00;6.18;;;;;;;24.65;64.68;100234.16;10373292;28;96913;-80
2023/08/09 04:14:17;;;;;;;8.77;5.75;;;;;;;24.63;64.92;100225.38;10374330;28;96719;-79
2023/08/09 04:19:21;;;;;;;9.75;5.90;;;;;;;24.65;64.90;100231.44;10374263;28;96971;-80
2023/08/09 04:24:25;;;;;;;8.38;5.75;;;;;;;24.54;65.08;100235.19;10399296;28;97496;-80
2023/08/09 04:29:30;;;;;;;8.43;5.77;;;;;;;24.40;65.01;100235.69;10415500;28;96895;-80
2023/08/09 04:34:33;;;;;;;9.75;6.18;;;;;;;24.37;65.52;100238.69;10375558;28;97136;-80
2023/08/09 04:39:37;;;;;;;9.70;5.70;;;;;;;24.36;65.41;100246.91;10373698;28;97611;-80
2023/08/09 04:44:43;;;;;;;10.57;5.87;;;;;;;24.27;65.41;100245.88;10374275;28;96814;-80
2023/08/09 04:49:47;;;;;;;10.30;5.97;;;;;;;24.09;65.96;100247.66;10373899;28;96651;-80
2023/08/09 04:54:50;;;;;;;10.53;6.40;;;;;;;24.02;66.33;100249.25;10414848;28;97047;-80
2023/08/09 04:59:55;;;;;;;10.10;5.70;;;;;;;24.06;66.12;100255.16;10413796;28;97191;-80
2023/08/09 05:05:02;;;;;;;12.35;6.57;;;;;;;23.95;66.19;100258.03;10404278;28;96753;-80
2023/08/09 05:10:06;;;;;;;9.90;6.03;;;;;;;23.99;66.35;100259.44;10372746;28;96691;-80
2023/08/09 05:15:12;;;;;;;7.45;5.22;;;;;;;23.99;65.96;100273.72;10372562;28;97592;-80
2023/08/09 05:20:16;;;;;;;8.20;5.90;;;;;;;24.10;65.75;100261.97;10372623;28;97799;-80
2023/08/09 05:25:19;;;;;;;10.65;5.78;;;;;;;24.10;65.74;100267.34;10404526;27;96991;-80
2023/08/09 05:30:24;;;;;;;8.10;5.80;;;;;;;23.87;66.33;100271.34;10413972;27;97586;-80
2023/08/09 05:35:34;;;;;;;8.70;5.80;;;;;;;23.86;66.45;100269.66;10414589;28;97606;-79
2023/08/09 05:40:37;;;;;;;9.55;6.10;;;;;;;23.98;66.14;100263.97;10389508;28;97029;-80
2023/08/09 05:45:44;;;;;;;8.90;5.38;;;;;;;24.07;65.80;100273.84;10371644;28;96629;-79
2023/08/09 05:50:48;;;;;;;9.40;6.22;;;;;;;24.04;65.85;100271.47;10369976;28;96697;-80
2023/08/09 05:55:52;;;;;;;9.63;6.10;;;;;;;24.05;65.77;100267.75;10396701;28;96801;-79
2023/08/09 06:00:59;;;;;;;8.30;5.97;;;;;;;24.28;65.25;100276.34;10371277;28;96725;-80
2023/08/09 06:06:03;;;;;;;9.57;5.72;;;;;;;24.26;65.34;100281.84;10370808;28;96715;-80
2023/08/09 06:11:06;;;;;;;7.67;5.00;;;;;;;24.32;65.15;100281.31;10371018;28;96808;-79
2023/08/09 06:16:11;;;;;;;8.30;5.97;;;;;;;24.38;65.13;100286.09;10371358;28;97774;-79
2023/08/09 06:21:14;;;;;;;8.73;6.03;;;;;;;24.45;65.06;100289.88;10374343;28;96850;-79
2023/08/09 06:26:19;;;;;;;9.90;5.80;;;;;;;24.38;65.21;100299.53;10412531;28;97457;-80
2023/08/09 06:31:26;;;;;;;10.30;5.72;;;;;;;24.40;65.47;100294.88;10411279;28;96708;-80
2023/08/09 06:36:29;;;;;;;7.90;5.93;;;;;;;24.45;65.19;100303.34;10415743;27;97657;-80
2023/08/09 06:41:32;;;;;;;10.07;5.67;;;;;;;24.33;65.74;100306.34;10417828;28;97233;-80
2023/08/09 06:46:40;;;;;;;9.90;6.18;;;;;;;24.14;66.32;100317.97;10417807;28;96814;-80
2023/08/09 06:51:44;;;;;;;11.23;6.32;;;;;;;24.14;66.17;100326.06;10418540;28;96769;-80
2023/08/09 06:56:49;;;;;;;9.63;5.73;;;;;;;24.24;66.20;100329.56;10418289;28;96733;-80
2023/08/09 07:02:00;;;;;;;9.55;5.65;;;;;;;24.01;66.85;100343.50;10418155;28;96778;-80
2023/08/09 07:07:05;;;;;;;8.55;5.15;;;;;;;24.16;67.02;100355.47;10382794;28;96979;-80
2023/08/09 07:12:10;;;;;;;9.05;5.95;;;;;;;24.41;66.55;100355.72;10376494;28;96605;-80
2023/08/09 07:17:17;;;;;;;11.60;6.53;;;;;;;24.56;66.24;100359.69;10377166;28;96699;-80
2023/08/09 07:22:22;;;;;;;14.18;7.60;;;;;;;24.42;66.91;100380.81;10376574;28;96875;-80
2023/08/09 07:27:25;;;;;;;13.80;8.82;;;;;;;24.48;66.94;100393.69;10416909;28;97662;-80
2023/08/09 07:32:33;;;;;;;11.97;7.57;;;;;;;24.78;66.19;100398.81;10416652;28;96767;-80
2023/08/09 07:37:41;;;;;;;13.90;8.10;;;;;;;24.56;66.83;100407.25;10409762;28;96820;-80
2023/08/09 07:42:44;;;;;;;13.88;8.95;;;;;;;24.55;66.61;100425.22;10375626;28;97725;-80
2023/08/09 07:47:51;;;;;;;11.90;8.63;;;;;;;24.35;67.56;100444.25;10373565;28;97043;-80
2023/08/09 07:52:56;;;;;;;14.07;7.82;;;;;;;24.59;66.57;100442.78;10385282;28;97004;-80
2023/08/09 07:57:59;;;;;;;15.48;9.25;;;;;;;24.34;67.29;100451.47;10381622;28;96636;-80
2023/08/09 08:03:05;;;;;;;17.10;9.63;;;;;;;24.32;67.44;100450.78;10375068;28;96996;-80
2023/08/09 08:08:08;;;;;;;17.88;8.60;;;;;;;24.37;67.57;100459.25;10375391;28;96729;-80
2023/08/09 08:13:12;;;;;;;12.17;8.33;;;;;;;24.74;66.45;100467.38;10375368;28;96817;-80
2023/08/09 08:18:21;;;;;;;14.52;7.97;;;;;;;24.72;66.62;100450.56;10399058;22;98180;-80
2023/08/09 08:23:25;;;;;;;12.70;8.05;;;;;;;25.02;65.60;100450.34;10414632;28;97532;-80
2023/08/09 08:28:30;;;;;;;10.75;6.90;;;;;;;25.25;65.44;100450.81;10414978;28;96713;-80
2023/08/09 08:33:37;;;;;;;12.13;7.15;;;;;;;25.43;65.22;100457.94;10416077;28;96721;-80
2023/08/09 08:38:40;;;;;;;13.75;7.88;;;;;;;25.31;65.27;100453.75;10414824;28;96733;-80
2023/08/09 08:43:46;;;;;;;12.27;6.95;;;;;;;25.33;65.26;100449.06;10415401;28;97177;-80
2023/08/09 08:48:53;;;;;;;9.77;6.38;;;;;;;25.35;64.98;100454.28;10380983;28;97282;-80
2023/08/09 08:54:00;;;;;;;9.82;6.32;;;;;;;25.45;65.03;100457.81;10373376;28;96753;-80
2023/08/09 08:59:07;;;;;;;9.90;5.97;;;;;;;25.71;64.09;100462.34;10373370;28;97503;-80
2023/08/09 09:04:12;;;;;;;9.57;6.47;;;;;;;25.79;63.86;100454.38;10373610;28;97152;-80
2023/08/09 09:09:17;;;;;;;10.38;6.50;;;;;;;26.03;63.26;100451.06;10372722;28;97679;-80
2023/08/09 09:14:20;;;;;;;9.55;6.38;;;;;;;25.82;63.42;100455.88;10371776;28;97604;-80
2023/08/09 09:19:29;;;;;;;9.93;6.32;;;;;;;25.54;63.90;100454.19;10399090;28;97246;-80
2023/08/09 09:24:36;;;;;;;11.25;6.95;;;;;;;25.95;62.81;100459.06;10414228;28;96922;-80
2023/08/09 09:29:42;;;;;;;11.15;7.07;;;;;;;26.25;62.15;100453.28;10413744;28;96763;-80
2023/08/09 09:34:48;;;;;;;9.30;6.50;;;;;;;26.40;61.59;100442.81;10413759;28;96957;-80
2023/08/09 09:39:53;;;;;;;10.40;6.45;;;;;;;26.62;60.82;100448.56;10412797;28;97030;-80
2023/08/09 09:45:09;;;;;;;9.57;6.10;;;;;;;26.88;60.28;100443.16;10412920;28;96727;-80
2023/08/09 09:50:17;;;;;;;9.82;6.20;;;;;;;26.92;60.44;100441.81;10414130;28;97518;-80
2023/08/09 09:55:27;;;;;;;9.75;6.78;;;;;;;27.12;59.51;100447.84;10412098;28;96678;-80
2023/08/09 10:00:31;;;;;;;10.07;6.00;;;;;;;27.60;58.38;100448.03;10412710;28;97614;-80
2023/08/09 10:05:38;;;;;;;8.40;6.00;;;;;;;27.87;57.74;100442.41;10411698;28;96774;-80
2023/08/09 10:10:44;;;;;;;9.40;6.40;;;;;;;28.39;56.50;100445.69;10414435;27;96700;-80
2023/08/09 10:15:53;;;;;;;9.63;5.68;;;;;;;28.75;55.35;100441.59;10419697;28;96649;-80
2023/08/09 10:21:00;;;;;;;9.95;6.00;;;;;;;29.01;54.52;100445.81;10419824;28;97823;-80
2023/08/09 10:26:04;;;;;;;8.57;6.30;;;;;;;29.13;54.44;100444.41;10419762;28;97039;-80
2023/08/09 10:31:07;;;;;;;8.55;5.93;;;;;;;29.07;54.26;100436.13;10418736;28;96751;-80
2023/08/09 10:36:19;;;;;;;11.10;5.40;;;;;;;28.84;53.69;100446.00;10419339;28;97085;-80
2023/08/09 10:41:26;;;;;;;8.98;5.40;;;;;;;28.96;54.26;100434.66;10419880;28;96760;-80
2023/08/09 10:46:34;;;;;;;6.13;4.63;;;;;;;28.93;54.18;100436.88;10418207;28;96949;-80
2023/08/09 10:51:47;;;;;;;6.18;4.70;;;;;;;28.93;53.14;100426.03;10418498;28;96770;-81
2023/08/09 10:56:50;;;;;;;7.30;5.13;;;;;;;29.37;53.23;100429.91;10417669;28;97655;-80
2023/08/09 11:01:54;;;;;;;;;;;;;;;29.53;51.77;100423.59;10418013;28;96782;-81
2023/08/09 11:07:00;;;;;;;7.00;4.57;;;;;;;29.36;52.59;100430.94;10418764;28;96832;-80
2023/08/09 11:12:07;;;;;;;7.18;4.53;;;;;;;29.57;52.06;100436.59;10418169;28;97025;-80
2023/08/09 11:17:15;;;;;;;8.10;5.03;;;;;;;29.82;51.66;100440.03;10417427;28;97546;-81
2023/08/09 11:22:19;;;;;;;6.15;4.63;;;;;;;29.77;51.65;100437.00;10380181;28;96755;-80
2023/08/09 11:27:23;;;;;;;5.90;4.53;;;;;;;30.28;50.81;100442.59;10376178;28;96914;-80
2023/08/09 11:32:31;;;;;;;6.93;4.72;;;;;;;30.35;50.74;100434.59;10377017;28;97093;-81
2023/08/09 11:37:36;;;;;;;9.00;5.07;;;;;;;30.79;49.53;100440.13;10376015;28;96789;-80
2023/08/09 11:42:41;;;;;;;6.50;4.82;;;;;;;29.86;50.93;100435.94;10416279;28;96775;-81
2023/08/09 11:47:50;;;;;;;;;;;;;;;30.12;50.60;100436.47;10416109;28;96734;-80
2023/08/09 11:52:55;;;;;;;5.85;4.43;;;;;;;30.16;51.35;100438.63;10407951;28;97071;-80
2023/08/09 11:57:59;;;;;;;6.22;4.32;;;;;;;29.76;52.04;100448.91;10374792;28;96882;-81
2023/08/09 12:03:06;;;;;;;;;;;;;;;29.88;51.81;100455.63;10375532;28;96811;-80
2023/08/09 12:08:13;;;;;;;7.30;4.10;;;;;;;29.80;51.56;100450.22;10374735;28;96743;-81
2023/08/09 12:13:21;;;;;;;5.78;4.18;;;;;;;29.89;51.44;100447.28;10374956;28;97689;-80
2023/08/09 12:18:24;;;;;;;6.22;4.65;;;;;;;29.91;51.50;100447.97;10405704;28;96866;-81
2023/08/09 12:23:29;;;;;;;8.38;4.82;;;;;;;29.74;51.71;100442.81;10416704;28;96792;-81
2023/08/09 12:28:32;;;;;;;7.53;5.07;;;;;;;30.18;50.65;100433.88;10392975;28;96885;-81
2023/08/09 12:33:35;;;;;;;7.60;5.47;;;;;;;30.00;51.11;100446.03;10401954;27;97474;-79
2023/08/09 12:38:40;;;;;;;;;;;;;;;30.23;51.11;100436.03;10436408;27;96755;-80
2023/08/09 12:43:43;;;;;;;6.80;4.65;;;;;;;30.42;50.47;100443.69;10420794;27;97602;-79
2023/08/09 12:48:46;;;;;;;5.85;4.78;;;;;;;30.57;50.33;100451.88;10417998;27;98649;-79
2023/08/09 12:53:51;;;;;;;6.68;5.28;;;;;;;30.55;50.65;100457.50;10416201;27;98873;-79
2023/08/09 12:58:55;;;;;;;6.70;4.68;;;;;;;30.52;50.32;100460.59;10413386;27;99229;-79
2023/08/09 13:03:58;;;;;;;5.82;4.85;;;;;;;30.75;49.87;100457.88;10404776;27;97421;-81
2023/08/09 13:09:09;;;;;;;7.07;4.22;;;;;;;30.88;49.95;100455.34;10417912;27;97627;-84
2023/08/09 13:14:12;;;;;;;6.18;4.40;;;;;;;30.44;50.02;100459.81;10415973;27;99218;-80
2023/08/09 13:19:15;;;;;;;;;;;;;;;30.73;49.73;100454.47;10393691;27;97228;-79
2023/08/09 13:24:19;;;;;;;6.20;3.87;;;;;;;30.86;49.46;100465.53;10366205;28;97543;-79
2023/08/09 13:29:23;;;;;;;6.35;4.03;;;;;;;30.81;49.25;100459.81;10368300;28;96784;-79
2023/08/09 13:34:26;;;;;;;;;;;;;;;30.36;49.17;100447.13;10375357;28;97919;-79
2023/08/09 13:39:31;;;;;;;6.37;3.87;;;;;;;30.59;49.21;100447.09;10381863;28;97927;-79
2023/08/09 13:44:34;;;;;;;5.05;3.40;;;;;;;30.73;48.83;100446.31;10401246;28;97106;-79
2023/08/09 13:49:37;;;;;;;;;;;;;;;30.77;47.93;100451.19;10371172;28;96816;-79
2023/08/09 13:54:41;;;;;;;5.73;3.60;;;;;;;31.02;47.47;100455.34;10342162;28;96772;-80
2023/08/09 13:59:45;;;;;;;5.45;3.10;;;;;;;30.44;48.93;100459.81;10406269;28;96705;-79
2023/08/09 14:04:48;;;;;;;6.13;3.33;;;;;;;30.36;47.97;100458.00;10402721;28;97698;-79
2023/08/09 14:09:53;;;;;;;6.22;3.03;;;;;;;30.71;48.36;100470.13;10361521;28;97859;-79
2023/08/09 14:14:56;;;;;;;4.68;2.95;;;;;;;30.94;47.29;100474.44;10371315;28;97976;-80
2023/08/09 14:20:00;;;;;;;;;;;;;;;30.50;47.84;100483.50;10396404;27;96816;-80
2023/08/09 14:25:05;;;;;;;5.20;2.67;;;;;;;30.72;48.03;100483.50;10407066;27;96937;-81
2023/08/09 14:30:09;;;;;;;5.68;2.88;;;;;;;30.80;47.56;100485.31;10417817;27;98195;-81
2023/08/09 14:35:13;;;;;;;7.07;3.28;;;;;;;31.00;47.31;100483.75;10412319;27;98632;-81
2023/08/09 14:40:17;;;;;;;6.97;3.17;;;;;;;31.21;46.56;100465.69;10404513;27;98805;-81
2023/08/09 14:45:21;;;;;;;5.90;3.22;;;;;;;31.37;46.30;100459.22;10412013;27;97217;-81
2023/08/09 14:50:24;;;;;;;6.28;3.03;;;;;;;31.63;45.78;100445.09;10410304;27;96698;-81
2023/08/09 14:55:30;;;;;;;6.03;2.90;;;;;;;31.77;45.30;100427.91;10420636;27;96793;-82
2023/08/09 15:00:33;;;;;;;6.45;3.05;;;;;;;32.25;44.72;100429.91;10401373;28;96893;-82
2023/08/09 15:05:36;;;;;;;6.40;3.13;;;;;;;32.19;44.34;100433.38;10427789;27;97286;-82
2023/08/09 15:10:41;;;;;;;5.82;2.80;;;;;;;32.31;44.64;100431.81;10416752;28;96837;-81
2023/08/09 15:15:44;;;;;;;3.83;2.40;;;;;;;32.01;44.53;100438.47;10420999;27;96969;-79
2023/08/09 15:20:48;;;;;;;5.38;2.90;;;;;;;31.98;44.46;100436.13;10428761;27;96890;-82
2023/08/09 15:25:53;;;;;;;6.38;2.95;;;;;;;31.74;44.43;100437.28;10458606;27;97356;-80
2023/08/09 15:30:56;;;;;;;5.40;2.40;;;;;;;31.98;43.95;100436.13;10458861;27;97604;-81
2023/08/09 15:36:00;;;;;;;5.53;2.92;;;;;;;31.62;44.51;100437.97;10418654;27;96795;-80
2023/08/09 15:41:05;;;;;;;7.65;2.83;;;;;;;31.58;44.72;100450.28;10424253;27;96907;-81
2023/08/09 15:46:08;;;;;;;5.85;2.50;;;;;;;31.57;44.81;100449.44;10420319;27;97279;-80
2023/08/09 15:51:11;;;;;;;6.07;2.50;;;;;;;30.84;45.01;100438.56;10414802;27;97509;-81
2023/08/09 15:56:15;;;;;;;;;;;;;;;31.04;44.89;100442.41;10423818;27;97120;-79
2023/08/09 16:01:20;;;;;;;4.35;2.35;;;;;;;30.92;44.72;100462.09;10420775;27;97760;-78
2023/08/09 16:06:23;;;;;;;3.17;2.22;;;;;;;30.64;45.60;100452.81;10443223;27;96968;-80
2023/08/09 16:11:28;;;;;;;;;;;;;;;30.25;45.74;100461.13;10393049;27;97549;-80
2023/08/09 16:16:31;;;;;;;6.28;2.88;;;;;;;30.18;45.97;100465.59;10429784;27;97531;-85
2023/08/09 16:21:36;;;;;;;5.20;2.60;;;;;;;30.11;46.03;100465.47;10413690;28;97604;-79
2023/08/09 16:26:41;;;;;;;;;;;;;;;30.13;46.58;100459.88;10419487;27;96958;-82
2023/08/09 16:31:44;;;;;;;4.95;2.58;;;;;;;29.93;45.94;100467.63;10438038;27;96791;-80
2023/08/09 16:36:47;;;;;;;6.78;2.35;;;;;;;29.53;46.18;100472.41;10435177;27;97182;-80
2023/08/09 16:41:52;;;;;;;5.40;2.17;;;;;;;29.60;46.48;100481.53;10433244;27;96825;-80
2023/08/09 16:46:58;;;;;;;3.85;2.33;;;;;;;29.60;46.34;100478.81;10426703;27;96868;-81
2023/08/09 16:52:03;;;;;;;4.90;2.22;;;;;;;29.46;46.71;100498.50;10413734;28;96644;-82
2023/08/09 16:57:09;;;;;;;5.47;2.03;;;;;;;29.02;47.15;100504.41;10419060;27;97114;-79
2023/08/09 17:02:12;;;;;;;5.90;2.55;;;;;;;28.98;47.15;100516.59;10400513;27;97311;-78
2023/08/09 17:07:16;;;;;;;5.60;2.08;;;;;;;28.92;47.23;100514.59;10417971;27;97314;-78
2023/08/09 17:12:21;;;;;;;4.80;2.20;;;;;;;28.93;47.18;100521.69;10420021;27;97305;-78
2023/08/09 17:17:24;;;;;;;5.78;2.22;;;;;;;28.96;47.08;100496.13;10402130;27;99367;-80
2023/08/09 17:22:28;;;;;;;6.35;2.05;;;;;;;28.82;47.12;100504.91;10430306;27;96782;-78
2023/08/09 17:27:32;;;;;;;5.43;2.40;;;;;;;28.90;46.74;100513.88;10417105;27;98633;-78
2023/08/09 17:32:36;;;;;;;4.10;1.98;;;;;;;28.69;47.25;100528.97;10419558;27;97679;-79
2023/08/09 17:37:41;;;;;;;5.95;2.05;;;;;;;28.69;46.97;100521.69;10371998;28;96899;-80
2023/08/09 17:42:46;;;;;;;4.72;2.33;;;;;;;28.71;46.65;100533.19;10411201;28;96699;-80
2023/08/09 17:47:49;;;;;;;6.93;2.10;;;;;;;28.80;46.52;100540.31;10413015;28;96977;-80
2023/08/09 17:52:52;;;;;;;4.63;1.92;;;;;;;28.54;46.70;100552.31;10379246;28;96755;-80
2023/08/09 17:57:57;;;;;;;3.35;1.65;;;;;;;28.59;46.53;100556.22;10371217;28;96614;-80
2023/08/09 18:03:04;;;;;;;5.35;1.90;;;;;;;28.51;46.90;100572.47;10371243;28;97111;-80
2023/08/09 18:08:08;;;;;;;5.72;2.10;;;;;;;28.18;46.99;100576.09;10371022;28;96680;-80
2023/08/09 18:13:13;;;;;;;5.72;2.10;;;;;;;28.37;46.89;100575.81;10380439;28;97842;-80
2023/08/09 18:18:16;;;;;;;6.05;2.35;;;;;;;27.92;47.50;100575.31;10412178;28;97385;-80
2023/08/09 18:23:23;;;;;;;4.45;2.08;;;;;;;27.70;48.79;100590.25;10406567;28;96804;-79
2023/08/09 18:28:31;;;;;;;5.15;2.28;;;;;;;27.75;48.73;100606.03;10370203;28;97166;-79
2023/08/09 18:33:35;;;;;;;5.03;1.85;;;;;;;27.49;49.32;100610.59;10374057;28;96826;-80
2023/08/09 18:38:38;;;;;;;5.90;1.95;;;;;;;27.36;50.04;100631.75;10377279;28;96932;-80
2023/08/09 18:43:45;;;;;;;;;;;;;;;27.27;50.38;100630.88;10378143;28;97205;-79
2023/08/09 18:48:51;;;;;;;5.85;1.75;;;;;;;26.84;51.38;100642.47;10376043;28;97512;-79
2023/08/09 18:53:55;;;;;;;4.88;1.58;;;;;;;26.86;51.05;100651.28;10376714;28;96909;-80
2023/08/09 18:59:00;;;;;;;5.28;1.90;;;;;;;26.54;51.85;100663.63;10376723;28;96738;-80
2023/08/09 19:04:03;;;;;;;5.50;1.90;;;;;;;26.44;52.22;100673.59;10376332;28;97136;-80
2023/08/09 19:09:10;;;;;;;7.03;1.80;;;;;;;26.44;52.36;100687.09;10376817;28;96806;-79
2023/08/09 19:14:15;;;;;;;5.95;1.95;;;;;;;26.43;52.03;100691.66;10406527;27;96831;-79
2023/08/09 19:19:18;;;;;;;3.65;2.05;;;;;;;26.37;52.46;100702.22;10375310;28;97163;-80
2023/08/09 19:24:22;;;;;;;4.53;1.60;;;;;;;26.25;52.96;100708.75;10374958;28;96853;-80
2023/08/09 19:29:26;;;;;;;5.88;2.15;;;;;;;26.30;52.95;100717.28;10375091;28;96880;-79
2023/08/09 19:34:34;;;;;;;5.38;2.00;;;;;;;26.10;53.20;100716.50;10375871;28;96673;-79
2023/08/09 19:39:41;;;;;;;8.93;1.88;;;;;;;26.09;53.38;100720.19;10374675;28;96761;-80
2023/08/09 19:44:47;;;;;;;3.78;1.70;;;;;;;26.03;53.85;100736.13;10374676;28;97239;-79
2023/08/09 19:49:52;;;;;;;3.50;1.45;;;;;;;25.92;54.04;100745.22;10374975;28;97037;-79
2023/08/09 19:54:55;;;;;;;7.03;1.65;;;;;;;25.78;54.18;100757.34;10374471;28;96808;-80
2023/08/09 20:00:00;;;;;;;6.00;2.03;;;;;;;25.72;54.36;100757.06;10375137;28;97309;-79
2023/08/09 20:05:03;;;;;;;5.85;1.90;;;;;;;25.33;55.45;100755.38;10374510;28;97117;-79
2023/08/09 20:10:09;;;;;;;2.97;1.30;;;;;;;25.40;55.38;100759.19;10374318;28;96776;-79
2023/08/09 20:15:14;;;;;;;4.88;1.88;;;;;;;25.18;55.79;100783.72;10412420;28;96837;-79
2023/08/09 20:20:23;;;;;;;5.05;1.85;;;;;;;25.17;55.90;100798.19;10414333;28;96856;-79
2023/08/09 20:25:30;;;;;;;7.50;1.85;;;;;;;25.22;55.85;100793.22;10354478;28;97082;-79
2023/08/09 20:30:34;;;;;;;4.45;1.83;;;;;;;25.17;56.12;100790.97;10331899;28;97065;-79
2023/08/09 20:35:38;;;;;;;3.95;1.85;;;;;;;25.16;56.30;100809.94;10332081;28;96872;-79
2023/08/09 20:40:41;;;;;;;3.95;1.70;;;;;;;25.08;56.71;100820.56;10338341;28;97111;-79
2023/08/09 21:22:00;;;;;;;5.55;2.40;;;;;;;24.84;58.49;100888.22;10141110;28;98237;-79
2023/08/09 21:27:28;;;;;;;5.10;1.65;;;;;;;24.66;58.58;100882.63;10015333;28;98049;-79
2023/08/09 21:32:32;;;;;;;6.07;1.52;;;;;;;24.61;58.65;100884.88;10321029;28;97680;-79
2023/08/09 21:37:36;;;;;;;6.53;1.80;;;;;;;24.56;58.94;100888.94;10327685;28;97731;-79
2023/08/09 21:42:41;;;;;;;4.33;1.80;;;;;;;24.43;59.61;100891.84;10345605;28;96920;-79
2023/08/09 21:47:44;;;;;;;6.20;1.90;;;;;;;24.44;59.64;100887.34;10349764;28;1279076;-79
2023/08/09 21:52:47;;;;;;;3.80;1.67;;;;;;;24.44;59.62;100887.34;10330345;28;96660;-79
2023/08/09 21:57:54;;;;;;;5.30;1.60;;;;;;;24.35;59.98;100891.69;10330220;28;97188;-80
2023/08/09 22:02:58;;;;;;;6.25;1.95;;;;;;;24.25;60.36;100892.56;10329029;28;96649;-79
2023/08/09 22:08:02;;;;;;;6.83;2.03;;;;;;;24.13;60.58;100901.69;10329147;28;96802;-79
2023/08/09 22:13:07;;;;;;;4.45;2.00;;;;;;;24.17;60.39;100906.66;10329659;28;96675;-79
2023/08/09 22:18:15;;;;;;;6.13;2.10;;;;;;;24.31;60.01;100900.13;10329509;28;96841;-79
2023/08/09 22:23:19;;;;;;;5.22;2.08;;;;;;;24.33;59.90;100908.91;10329769;28;97341;-79
2023/08/09 22:28:24;;;;;;;5.70;2.00;;;;;;;24.35;59.97;100902.44;10329100;28;97030;-79
2023/08/09 22:33:27;;;;;;;5.22;2.20;;;;;;;24.37;59.83;100889.72;10329095;28;97526;-79
2023/08/09 22:38:30;;;;;;;4.37;1.73;;;;;;;24.32;60.37;100899.16;10330335;28;97008;-79
2023/08/09 22:43:35;;;;;;;6.20;1.63;;;;;;;24.14;60.52;100898.88;10348406;28;96783;-79
2023/08/09 22:48:38;;;;;;;5.22;2.15;;;;;;;23.88;61.08;100891.28;10410221;27;96653;-79
2023/08/09 22:53:41;;;;;;;6.23;2.00;;;;;;;23.69;61.33;100905.44;10453172;27;96786;-79
2023/08/09 22:58:46;;;;;;;4.40;2.07;;;;;;;23.80;61.04;100907.22;10386219;27;96649;-79
2023/08/09 23:03:51;;;;;;;4.07;1.63;;;;;;;23.66;61.31;100909.25;10369945;28;96740;-79
2023/08/09 23:08:54;;;;;;;5.22;1.83;;;;;;;23.56;61.59;100910.13;10369567;28;96721;-79
2023/08/09 23:14:00;;;;;;;5.33;1.83;;;;;;;23.27;62.78;100907.13;10369994;28;97529;-79
2023/08/09 23:19:04;;;;;;;4.22;2.03;;;;;;;23.18;62.90;100915.91;10373729;28;96692;-79
2023/08/09 23:24:08;;;;;;;4.37;1.70;;;;;;;22.69;64.17;100909.22;10376548;28;97482;-80
2023/08/09 23:29:12;;;;;;;3.53;2.20;;;;;;;22.66;64.49;100918.38;10377344;28;96840;-78
2023/08/09 23:34:16;;;;;;;4.95;2.08;;;;;;;23.02;63.31;100917.28;10376005;28;96658;-79
2023/08/09 23:39:20;;;;;;;4.53;2.03;;;;;;;23.29;62.41;100913.22;10384687;27;96998;-79
2023/08/09 23:44:25;;;;;;;;;;;;;;;22.89;63.81;100917.41;10416393;27;96851;-79
2023/08/09 23:49:28;;;;;;;5.88;2.20;;;;;;;23.23;62.21;100926.28;10386539;28;97622;-79
2023/08/09 23:54:31;;;;;;;7.72;2.20;;;;;;;23.31;62.31;100910.41;10375211;28;96765;-79
2023/08/09 23:59:36;;;;;;;4.77;2.57;;;;;;;23.19;62.20;100906.03;10375127;28;96782;-79
